sensor_id;sensor_type;location;lat;lon;timestamp;temperature;humidity
45785;DHT22;31489;51.404;5.474;2022-07-01T00:01:43;18.40;74.00
45785;DHT22;31489;51.404;5.474;2022-07-01T00:04:10;18.40;74.10
45785;DHT22;31489;51.404;5.474;2022-07-01T00:06:36;18.40;74.00
45785;DHT22;31489;51.404;5.474;2022-07-01T00:09:03;18.40;74.00
45785;DHT22;31489;51.404;5.474;2022-07-01T00:11:31;18.30;73.80
45785;DHT22;31489;51.404;5.474;2022-07-01T00:13:57;18.30;74.10
45785;DHT22;31489;51.404;5.474;2022-07-01T00:16:23;18.30;73.80
45785;DHT22;31489;51.404;5.474;2022-07-01T00:18:48;18.30;73.90
45785;DHT22;31489;51.404;5.474;2022-07-01T00:21:14;18.30;73.60
45785;DHT22;31489;51.404;5.474;2022-07-01T00:23:41;18.20;73.40
45785;DHT22;31489;51.404;5.474;2022-07-01T00:26:07;18.20;74.00
45785;DHT22;31489;51.404;5.474;2022-07-01T00:28:34;18.20;73.80
45785;DHT22;31489;51.404;5.474;2022-07-01T00:30:59;18.20;73.90
45785;DHT22;31489;51.404;5.474;2022-07-01T00:33:25;18.20;74.30
45785;DHT22;31489;51.404;5.474;2022-07-01T00:35:51;18.20;74.30
45785;DHT22;31489;51.404;5.474;2022-07-01T00:38:17;18.20;74.20
45785;DHT22;31489;51.404;5.474;2022-07-01T00:40:43;18.20;74.20
45785;DHT22;31489;51.404;5.474;2022-07-01T00:43:09;18.20;74.00
45785;DHT22;31489;51.404;5.474;2022-07-01T00:45:34;18.20;74.10
45785;DHT22;31489;51.404;5.474;2022-07-01T00:48:00;18.20;73.90
45785;DHT22;31489;51.404;5.474;2022-07-01T00:50:26;18.10;74.20
45785;DHT22;31489;51.404;5.474;2022-07-01T00:52:52;18.10;74.10
45785;DHT22;31489;51.404;5.474;2022-07-01T00:55:18;18.10;75.00
45785;DHT22;31489;51.404;5.474;2022-07-01T00:57:44;18.10;74.30
45785;DHT22;31489;51.404;5.474;2022-07-01T01:00:13;18.10;74.20
45785;DHT22;31489;51.404;5.474;2022-07-01T01:02:39;18.00;74.30
45785;DHT22;31489;51.404;5.474;2022-07-01T01:05:06;18.00;74.60
45785;DHT22;31489;51.404;5.474;2022-07-01T01:07:33;18.00;74.80
45785;DHT22;31489;51.404;5.474;2022-07-01T01:09:59;18.00;74.80
45785;DHT22;31489;51.404;5.474;2022-07-01T01:12:26;18.00;75.10
45785;DHT22;31489;51.404;5.474;2022-07-01T01:14:52;18.00;75.00
45785;DHT22;31489;51.404;5.474;2022-07-01T01:17:18;18.10;74.90
45785;DHT22;31489;51.404;5.474;2022-07-01T01:19:45;18.10;74.90
45785;DHT22;31489;51.404;5.474;2022-07-01T01:22:14;18.10;74.90
45785;DHT22;31489;51.404;5.474;2022-07-01T01:24:41;18.10;74.70
45785;DHT22;31489;51.404;5.474;2022-07-01T01:27:07;18.20;74.60
45785;DHT22;31489;51.404;5.474;2022-07-01T01:29:35;18.10;74.20
45785;DHT22;31489;51.404;5.474;2022-07-01T01:32:02;18.10;74.40
45785;DHT22;31489;51.404;5.474;2022-07-01T01:34:28;18.10;74.40
45785;DHT22;31489;51.404;5.474;2022-07-01T01:36:54;18.10;74.60
45785;DHT22;31489;51.404;5.474;2022-07-01T01:39:20;18.10;74.60
45785;DHT22;31489;51.404;5.474;2022-07-01T01:41:49;18.10;74.50
45785;DHT22;31489;51.404;5.474;2022-07-01T01:44:14;18.10;74.70
45785;DHT22;31489;51.404;5.474;2022-07-01T01:46:40;18.00;74.60
45785;DHT22;31489;51.404;5.474;2022-07-01T01:49:06;18.10;74.90
45785;DHT22;31489;51.404;5.474;2022-07-01T01:51:32;18.00;74.70
45785;DHT22;31489;51.404;5.474;2022-07-01T01:53:58;18.10;74.70
45785;DHT22;31489;51.404;5.474;2022-07-01T01:56:25;18.10;74.80
45785;DHT22;31489;51.404;5.474;2022-07-01T01:58:50;18.10;74.90
45785;DHT22;31489;51.404;5.474;2022-07-01T02:01:17;18.10;75.00
45785;DHT22;31489;51.404;5.474;2022-07-01T02:03:44;18.00;75.00
45785;DHT22;31489;51.404;5.474;2022-07-01T02:06:11;18.00;74.80
45785;DHT22;31489;51.404;5.474;2022-07-01T02:08:40;18.00;74.80
45785;DHT22;31489;51.404;5.474;2022-07-01T02:11:07;18.00;75.00
45785;DHT22;31489;51.404;5.474;2022-07-01T02:13:34;18.00;75.00
45785;DHT22;31489;51.404;5.474;2022-07-01T02:15:59;18.00;75.30
45785;DHT22;31489;51.404;5.474;2022-07-01T02:18:25;18.00;75.00
45785;DHT22;31489;51.404;5.474;2022-07-01T02:20:51;18.00;75.00
45785;DHT22;31489;51.404;5.474;2022-07-01T02:23:17;18.10;75.10
45785;DHT22;31489;51.404;5.474;2022-07-01T02:25:43;18.00;75.00
45785;DHT22;31489;51.404;5.474;2022-07-01T02:28:10;18.00;75.00
45785;DHT22;31489;51.404;5.474;2022-07-01T02:30:36;18.10;75.00
45785;DHT22;31489;51.404;5.474;2022-07-01T02:33:03;18.10;74.90
45785;DHT22;31489;51.404;5.474;2022-07-01T02:35:29;18.10;74.60
45785;DHT22;31489;51.404;5.474;2022-07-01T02:37:55;18.10;74.60
45785;DHT22;31489;51.404;5.474;2022-07-01T02:40:21;18.10;74.70
45785;DHT22;31489;51.404;5.474;2022-07-01T02:42:47;18.10;74.80
45785;DHT22;31489;51.404;5.474;2022-07-01T02:45:12;18.10;74.80
45785;DHT22;31489;51.404;5.474;2022-07-01T02:47:39;18.10;74.80
45785;DHT22;31489;51.404;5.474;2022-07-01T02:50:07;18.10;74.60
45785;DHT22;31489;51.404;5.474;2022-07-01T02:52:34;18.10;74.80
45785;DHT22;31489;51.404;5.474;2022-07-01T02:55:05;18.10;74.80
45785;DHT22;31489;51.404;5.474;2022-07-01T02:57:31;18.10;74.70
45785;DHT22;31489;51.404;5.474;2022-07-01T02:59:57;18.10;74.80
45785;DHT22;31489;51.404;5.474;2022-07-01T03:02:24;18.10;74.60
45785;DHT22;31489;51.404;5.474;2022-07-01T03:04:51;18.10;74.70
45785;DHT22;31489;51.404;5.474;2022-07-01T03:07:18;18.10;74.80
45785;DHT22;31489;51.404;5.474;2022-07-01T03:09:44;18.10;74.60
45785;DHT22;31489;51.404;5.474;2022-07-01T03:12:11;18.10;75.20
45785;DHT22;31489;51.404;5.474;2022-07-01T03:15:00;18.00;74.80
45785;DHT22;31489;51.404;5.474;2022-07-01T03:17:27;18.00;74.80
45785;DHT22;31489;51.404;5.474;2022-07-01T03:19:54;18.00;74.80
45785;DHT22;31489;51.404;5.474;2022-07-01T03:22:22;18.00;75.10
45785;DHT22;31489;51.404;5.474;2022-07-01T03:24:49;18.00;75.10
45785;DHT22;31489;51.404;5.474;2022-07-01T03:27:15;18.00;75.20
45785;DHT22;31489;51.404;5.474;2022-07-01T03:29:41;18.00;75.60
45785;DHT22;31489;51.404;5.474;2022-07-01T03:32:08;18.00;75.60
45785;DHT22;31489;51.404;5.474;2022-07-01T03:34:42;18.00;75.50
45785;DHT22;31489;51.404;5.474;2022-07-01T03:37:10;18.00;75.80
45785;DHT22;31489;51.404;5.474;2022-07-01T03:39:36;18.00;75.40
45785;DHT22;31489;51.404;5.474;2022-07-01T03:42:04;18.00;75.50
45785;DHT22;31489;51.404;5.474;2022-07-01T03:44:30;18.00;75.30
45785;DHT22;31489;51.404;5.474;2022-07-01T03:46:56;18.00;75.20
45785;DHT22;31489;51.404;5.474;2022-07-01T03:49:22;18.10;75.20
45785;DHT22;31489;51.404;5.474;2022-07-01T03:51:48;18.00;75.40
45785;DHT22;31489;51.404;5.474;2022-07-01T03:54:14;18.00;75.00
45785;DHT22;31489;51.404;5.474;2022-07-01T03:57:15;18.00;75.00
45785;DHT22;31489;51.404;5.474;2022-07-01T03:59:41;18.00;75.00
45785;DHT22;31489;51.404;5.474;2022-07-01T04:02:07;18.00;74.80
45785;DHT22;31489;51.404;5.474;2022-07-01T04:04:34;18.00;74.80
45785;DHT22;31489;51.404;5.474;2022-07-01T04:07:01;17.90;74.90
45785;DHT22;31489;51.404;5.474;2022-07-01T04:09:28;17.90;75.00
45785;DHT22;31489;51.404;5.474;2022-07-01T04:11:54;17.90;75.30
45785;DHT22;31489;51.404;5.474;2022-07-01T04:14:21;17.90;75.20
45785;DHT22;31489;51.404;5.474;2022-07-01T04:16:47;17.80;75.20
45785;DHT22;31489;51.404;5.474;2022-07-01T04:19:14;17.80;75.50
45785;DHT22;31489;51.404;5.474;2022-07-01T04:21:40;17.80;75.60
45785;DHT22;31489;51.404;5.474;2022-07-01T04:24:25;17.80;75.40
45785;DHT22;31489;51.404;5.474;2022-07-01T04:26:51;17.80;75.70
45785;DHT22;31489;51.404;5.474;2022-07-01T04:29:18;17.80;75.60
45785;DHT22;31489;51.404;5.474;2022-07-01T04:31:44;17.80;75.90
45785;DHT22;31489;51.404;5.474;2022-07-01T04:34:11;17.80;75.90
45785;DHT22;31489;51.404;5.474;2022-07-01T04:36:37;17.80;76.00
45785;DHT22;31489;51.404;5.474;2022-07-01T04:39:04;17.80;75.90
45785;DHT22;31489;51.404;5.474;2022-07-01T04:41:30;17.80;75.70
45785;DHT22;31489;51.404;5.474;2022-07-01T04:44:15;17.80;75.70
45785;DHT22;31489;51.404;5.474;2022-07-01T04:46:41;17.80;75.70
45785;DHT22;31489;51.404;5.474;2022-07-01T04:49:07;17.80;75.80
45785;DHT22;31489;51.404;5.474;2022-07-01T04:51:33;17.80;75.60
45785;DHT22;31489;51.404;5.474;2022-07-01T04:54:03;17.80;75.50
45785;DHT22;31489;51.404;5.474;2022-07-01T04:56:30;17.90;75.70
45785;DHT22;31489;51.404;5.474;2022-07-01T04:58:56;17.80;75.50
45785;DHT22;31489;51.404;5.474;2022-07-01T05:01:22;17.90;75.70
45785;DHT22;31489;51.404;5.474;2022-07-01T05:03:48;17.90;75.80
45785;DHT22;31489;51.404;5.474;2022-07-01T05:06:14;17.90;75.70
45785;DHT22;31489;51.404;5.474;2022-07-01T05:08:40;17.90;75.80
45785;DHT22;31489;51.404;5.474;2022-07-01T05:11:06;17.90;76.40
45785;DHT22;31489;51.404;5.474;2022-07-01T05:13:32;18.00;75.80
45785;DHT22;31489;51.404;5.474;2022-07-01T05:16:02;18.00;75.80
45785;DHT22;31489;51.404;5.474;2022-07-01T05:18:28;18.00;75.80
45785;DHT22;31489;51.404;5.474;2022-07-01T05:21:12;18.00;75.70
45785;DHT22;31489;51.404;5.474;2022-07-01T05:23:56;18.00;76.00
45785;DHT22;31489;51.404;5.474;2022-07-01T05:26:22;18.00;75.00
45785;DHT22;31489;51.404;5.474;2022-07-01T05:28:52;18.00;75.10
45785;DHT22;31489;51.404;5.474;2022-07-01T05:31:18;18.00;75.00
45785;DHT22;31489;51.404;5.474;2022-07-01T05:33:44;18.00;75.20
45785;DHT22;31489;51.404;5.474;2022-07-01T05:36:10;18.00;75.30
45785;DHT22;31489;51.404;5.474;2022-07-01T05:38:36;18.00;75.40
45785;DHT22;31489;51.404;5.474;2022-07-01T05:41:02;18.00;75.60
45785;DHT22;31489;51.404;5.474;2022-07-01T05:43:28;17.90;75.60
45785;DHT22;31489;51.404;5.474;2022-07-01T05:45:55;18.00;75.70
45785;DHT22;31489;51.404;5.474;2022-07-01T05:48:21;18.00;75.70
45785;DHT22;31489;51.404;5.474;2022-07-01T05:50:46;18.00;75.70
45785;DHT22;31489;51.404;5.474;2022-07-01T05:53:13;18.00;75.80
45785;DHT22;31489;51.404;5.474;2022-07-01T05:55:39;18.00;75.80
45785;DHT22;31489;51.404;5.474;2022-07-01T05:58:05;18.00;75.80
45785;DHT22;31489;51.404;5.474;2022-07-01T06:00:35;18.00;76.00
45785;DHT22;31489;51.404;5.474;2022-07-01T06:03:01;18.10;76.00
45785;DHT22;31489;51.404;5.474;2022-07-01T06:05:27;18.10;75.90
45785;DHT22;31489;51.404;5.474;2022-07-01T06:07:55;18.10;76.00
45785;DHT22;31489;51.404;5.474;2022-07-01T06:10:20;18.10;75.70
45785;DHT22;31489;51.404;5.474;2022-07-01T06:12:46;18.10;75.60
45785;DHT22;31489;51.404;5.474;2022-07-01T06:15:12;18.00;75.60
45785;DHT22;31489;51.404;5.474;2022-07-01T06:17:39;18.10;75.70
45785;DHT22;31489;51.404;5.474;2022-07-01T06:20:06;18.10;75.80
45785;DHT22;31489;51.404;5.474;2022-07-01T06:22:33;18.10;75.90
45785;DHT22;31489;51.404;5.474;2022-07-01T06:25:00;18.10;75.40
45785;DHT22;31489;51.404;5.474;2022-07-01T06:27:26;18.10;75.20
45785;DHT22;31489;51.404;5.474;2022-07-01T06:29:52;18.10;75.20
45785;DHT22;31489;51.404;5.474;2022-07-01T06:32:18;18.10;75.30
45785;DHT22;31489;51.404;5.474;2022-07-01T06:34:44;18.10;75.20
45785;DHT22;31489;51.404;5.474;2022-07-01T06:37:10;18.10;75.00
45785;DHT22;31489;51.404;5.474;2022-07-01T06:39:36;18.00;75.40
45785;DHT22;31489;51.404;5.474;2022-07-01T06:42:02;18.00;75.30
45785;DHT22;31489;51.404;5.474;2022-07-01T06:44:28;18.00;75.40
45785;DHT22;31489;51.404;5.474;2022-07-01T06:46:53;18.00;75.40
45785;DHT22;31489;51.404;5.474;2022-07-01T06:49:19;18.10;75.40
45785;DHT22;31489;51.404;5.474;2022-07-01T06:51:45;18.10;75.80
45785;DHT22;31489;51.404;5.474;2022-07-01T06:54:11;18.10;75.70
45785;DHT22;31489;51.404;5.474;2022-07-01T06:56:36;18.20;75.30
45785;DHT22;31489;51.404;5.474;2022-07-01T06:59:02;18.20;75.40
45785;DHT22;31489;51.404;5.474;2022-07-01T07:01:28;18.30;75.10
45785;DHT22;31489;51.404;5.474;2022-07-01T07:03:54;18.30;74.50
45785;DHT22;31489;51.404;5.474;2022-07-01T07:06:20;18.30;74.60
45785;DHT22;31489;51.404;5.474;2022-07-01T07:08:49;18.40;74.50
45785;DHT22;31489;51.404;5.474;2022-07-01T07:11:15;18.40;74.10
45785;DHT22;31489;51.404;5.474;2022-07-01T07:13:42;18.40;73.90
45785;DHT22;31489;51.404;5.474;2022-07-01T07:16:08;18.50;73.10
45785;DHT22;31489;51.404;5.474;2022-07-01T07:18:34;18.50;73.50
45785;DHT22;31489;51.404;5.474;2022-07-01T07:21:00;18.50;73.50
45785;DHT22;31489;51.404;5.474;2022-07-01T07:23:26;18.50;73.60
45785;DHT22;31489;51.404;5.474;2022-07-01T07:25:51;18.60;73.10
45785;DHT22;31489;51.404;5.474;2022-07-01T07:28:17;18.60;72.10
45785;DHT22;31489;51.404;5.474;2022-07-01T07:30:42;18.60;72.30
45785;DHT22;31489;51.404;5.474;2022-07-01T07:33:08;18.60;71.50
45785;DHT22;31489;51.404;5.474;2022-07-01T07:35:34;18.60;71.30
45785;DHT22;31489;51.404;5.474;2022-07-01T07:38:00;18.60;71.80
45785;DHT22;31489;51.404;5.474;2022-07-01T07:40:25;18.60;71.60
45785;DHT22;31489;51.404;5.474;2022-07-01T07:42:51;18.60;71.50
45785;DHT22;31489;51.404;5.474;2022-07-01T07:45:17;18.60;70.90
45785;DHT22;31489;51.404;5.474;2022-07-01T07:47:47;18.60;70.70
45785;DHT22;31489;51.404;5.474;2022-07-01T07:50:14;18.70;70.50
45785;DHT22;31489;51.404;5.474;2022-07-01T07:52:40;18.70;70.70
45785;DHT22;31489;51.404;5.474;2022-07-01T07:55:08;18.70;70.50
45785;DHT22;31489;51.404;5.474;2022-07-01T07:57:36;18.80;70.50
45785;DHT22;31489;51.404;5.474;2022-07-01T08:00:02;18.80;69.60
45785;DHT22;31489;51.404;5.474;2022-07-01T08:02:29;18.80;69.80
45785;DHT22;31489;51.404;5.474;2022-07-01T08:04:55;18.90;69.60
45785;DHT22;31489;51.404;5.474;2022-07-01T08:07:20;18.90;68.70
45785;DHT22;31489;51.404;5.474;2022-07-01T08:09:49;19.00;68.40
45785;DHT22;31489;51.404;5.474;2022-07-01T08:12:15;19.00;67.40
45785;DHT22;31489;51.404;5.474;2022-07-01T08:14:42;19.10;68.50
45785;DHT22;31489;51.404;5.474;2022-07-01T08:17:07;19.10;68.10
45785;DHT22;31489;51.404;5.474;2022-07-01T08:19:33;19.10;67.90
45785;DHT22;31489;51.404;5.474;2022-07-01T08:21:59;19.20;67.00
45785;DHT22;31489;51.404;5.474;2022-07-01T08:24:25;19.20;67.40
45785;DHT22;31489;51.404;5.474;2022-07-01T08:26:50;19.20;67.40
45785;DHT22;31489;51.404;5.474;2022-07-01T08:29:16;19.30;67.20
45785;DHT22;31489;51.404;5.474;2022-07-01T08:31:42;19.30;66.70
45785;DHT22;31489;51.404;5.474;2022-07-01T08:34:07;19.30;66.00
45785;DHT22;31489;51.404;5.474;2022-07-01T08:36:34;19.40;67.40
45785;DHT22;31489;51.404;5.474;2022-07-01T08:39:00;19.40;66.70
45785;DHT22;31489;51.404;5.474;2022-07-01T08:41:26;19.40;65.90
45785;DHT22;31489;51.404;5.474;2022-07-01T08:43:52;19.50;66.00
45785;DHT22;31489;51.404;5.474;2022-07-01T08:46:18;19.60;65.10
45785;DHT22;31489;51.404;5.474;2022-07-01T08:48:44;19.60;65.10
45785;DHT22;31489;51.404;5.474;2022-07-01T08:51:10;19.60;64.20
45785;DHT22;31489;51.404;5.474;2022-07-01T08:53:36;19.60;64.80
45785;DHT22;31489;51.404;5.474;2022-07-01T08:56:03;19.70;65.20
45785;DHT22;31489;51.404;5.474;2022-07-01T08:58:51;19.70;65.40
45785;DHT22;31489;51.404;5.474;2022-07-01T09:01:18;19.80;65.40
45785;DHT22;31489;51.404;5.474;2022-07-01T09:03:47;19.80;65.40
45785;DHT22;31489;51.404;5.474;2022-07-01T09:06:18;19.90;63.90
45785;DHT22;31489;51.404;5.474;2022-07-01T09:08:45;20.00;62.80
45785;DHT22;31489;51.404;5.474;2022-07-01T09:11:21;20.00;64.00
45785;DHT22;31489;51.404;5.474;2022-07-01T09:14:10;20.10;63.50
45785;DHT22;31489;51.404;5.474;2022-07-01T09:16:54;20.10;63.20
45785;DHT22;31489;51.404;5.474;2022-07-01T09:19:24;20.20;63.40
45785;DHT22;31489;51.404;5.474;2022-07-01T09:21:51;20.20;63.90
45785;DHT22;31489;51.404;5.474;2022-07-01T09:24:37;20.20;63.90
45785;DHT22;31489;51.404;5.474;2022-07-01T09:29:49;20.40;63.10
45785;DHT22;31489;51.404;5.474;2022-07-01T09:32:18;20.50;62.10
45785;DHT22;31489;51.404;5.474;2022-07-01T09:34:48;20.50;63.30
45785;DHT22;31489;51.404;5.474;2022-07-01T09:37:18;20.60;62.30
45785;DHT22;31489;51.404;5.474;2022-07-01T09:39:45;20.60;61.30
45785;DHT22;31489;51.404;5.474;2022-07-01T09:42:12;20.70;61.30
45785;DHT22;31489;51.404;5.474;2022-07-01T09:44:58;20.80;61.20
45785;DHT22;31489;51.404;5.474;2022-07-01T09:47:27;20.80;60.10
45785;DHT22;31489;51.404;5.474;2022-07-01T09:49:54;20.90;61.10
45785;DHT22;31489;51.404;5.474;2022-07-01T09:52:21;20.90;60.80
45785;DHT22;31489;51.404;5.474;2022-07-01T09:54:48;21.00;60.50
45785;DHT22;31489;51.404;5.474;2022-07-01T09:57:18;21.00;59.80
45785;DHT22;31489;51.404;5.474;2022-07-01T09:59:44;21.10;60.00
45785;DHT22;31489;51.404;5.474;2022-07-01T10:02:11;21.20;60.40
45785;DHT22;31489;51.404;5.474;2022-07-01T10:04:46;21.20;59.60
45785;DHT22;31489;51.404;5.474;2022-07-01T10:07:26;21.40;59.60
45785;DHT22;31489;51.404;5.474;2022-07-01T10:12:55;21.50;58.80
45785;DHT22;31489;51.404;5.474;2022-07-01T10:15:21;21.60;58.50
45785;DHT22;31489;51.404;5.474;2022-07-01T10:17:49;21.70;58.40
45785;DHT22;31489;51.404;5.474;2022-07-01T10:20:22;21.70;57.90
45785;DHT22;31489;51.404;5.474;2022-07-01T10:22:48;21.70;58.30
45785;DHT22;31489;51.404;5.474;2022-07-01T10:31:05;21.90;56.70
45785;DHT22;31489;51.404;5.474;2022-07-01T10:33:43;21.90;56.60
45785;DHT22;31489;51.404;5.474;2022-07-01T10:44:13;22.00;57.30
45785;DHT22;31489;51.404;5.474;2022-07-01T10:46:40;22.10;56.40
45785;DHT22;31489;51.404;5.474;2022-07-01T10:49:19;22.20;56.90
45785;DHT22;31489;51.404;5.474;2022-07-01T10:51:56;22.20;56.10
45785;DHT22;31489;51.404;5.474;2022-07-01T10:59:56;22.70;55.50
45785;DHT22;31489;51.404;5.474;2022-07-01T11:02:39;22.90;55.60
45785;DHT22;31489;51.404;5.474;2022-07-01T11:05:14;23.20;55.80
45785;DHT22;31489;51.404;5.474;2022-07-01T11:07:43;23.50;55.20
45785;DHT22;31489;51.404;5.474;2022-07-01T11:10:14;23.80;55.50
45785;DHT22;31489;51.404;5.474;2022-07-01T11:12:41;24.10;55.60
45785;DHT22;31489;51.404;5.474;2022-07-01T11:15:10;24.40;55.40
45785;DHT22;31489;51.404;5.474;2022-07-01T11:17:45;24.70;54.30
45785;DHT22;31489;51.404;5.474;2022-07-01T11:20:11;25.00;51.60
45785;DHT22;31489;51.404;5.474;2022-07-01T11:22:37;25.20;54.60
45785;DHT22;31489;51.404;5.474;2022-07-01T11:25:08;25.30;52.70
45785;DHT22;31489;51.404;5.474;2022-07-01T11:27:35;25.40;51.60
45785;DHT22;31489;51.404;5.474;2022-07-01T11:30:08;25.50;52.60
45785;DHT22;31489;51.404;5.474;2022-07-01T11:32:42;25.60;51.00
45785;DHT22;31489;51.404;5.474;2022-07-01T11:35:09;25.80;51.50
45785;DHT22;31489;51.404;5.474;2022-07-01T11:38:14;25.90;50.30
45785;DHT22;31489;51.404;5.474;2022-07-01T11:41:01;26.00;47.80
45785;DHT22;31489;51.404;5.474;2022-07-01T11:43:33;26.10;50.20
45785;DHT22;31489;51.404;5.474;2022-07-01T11:46:02;26.10;48.90
45785;DHT22;31489;51.404;5.474;2022-07-01T11:48:30;26.10;48.80
45785;DHT22;31489;51.404;5.474;2022-07-01T11:50:56;26.10;48.80
45785;DHT22;31489;51.404;5.474;2022-07-01T11:53:24;26.20;48.90
45785;DHT22;31489;51.404;5.474;2022-07-01T11:55:49;26.20;48.00
45785;DHT22;31489;51.404;5.474;2022-07-01T11:58:15;26.20;48.40
45785;DHT22;31489;51.404;5.474;2022-07-01T12:00:41;26.20;47.60
45785;DHT22;31489;51.404;5.474;2022-07-01T12:03:06;26.10;47.30
45785;DHT22;31489;51.404;5.474;2022-07-01T12:05:34;26.10;47.80
45785;DHT22;31489;51.404;5.474;2022-07-01T12:08:00;26.10;47.30
45785;DHT22;31489;51.404;5.474;2022-07-01T12:10:26;26.00;47.30
45785;DHT22;31489;51.404;5.474;2022-07-01T12:12:53;26.00;47.10
45785;DHT22;31489;51.404;5.474;2022-07-01T12:15:20;26.00;47.00
45785;DHT22;31489;51.404;5.474;2022-07-01T12:17:46;26.00;47.40
45785;DHT22;31489;51.404;5.474;2022-07-01T12:20:12;26.00;47.30
45785;DHT22;31489;51.404;5.474;2022-07-01T12:22:38;26.00;48.10
45785;DHT22;31489;51.404;5.474;2022-07-01T12:25:13;26.00;47.70
45785;DHT22;31489;51.404;5.474;2022-07-01T12:27:41;26.10;46.60
45785;DHT22;31489;51.404;5.474;2022-07-01T12:30:21;26.10;47.50
45785;DHT22;31489;51.404;5.474;2022-07-01T12:32:51;26.00;46.80
45785;DHT22;31489;51.404;5.474;2022-07-01T12:35:24;26.00;46.70
45785;DHT22;31489;51.404;5.474;2022-07-01T12:38:03;26.00;46.10
45785;DHT22;31489;51.404;5.474;2022-07-01T12:40:33;25.90;47.80
45785;DHT22;31489;51.404;5.474;2022-07-01T12:42:58;25.90;47.40
45785;DHT22;31489;51.404;5.474;2022-07-01T12:45:32;26.00;47.50
45785;DHT22;31489;51.404;5.474;2022-07-01T12:48:00;26.00;46.80
45785;DHT22;31489;51.404;5.474;2022-07-01T12:50:27;26.00;46.70
45785;DHT22;31489;51.404;5.474;2022-07-01T12:53:00;26.10;46.50
45785;DHT22;31489;51.404;5.474;2022-07-01T12:55:28;26.20;46.40
45785;DHT22;31489;51.404;5.474;2022-07-01T12:57:56;26.30;46.50
45785;DHT22;31489;51.404;5.474;2022-07-01T13:00:25;26.30;46.40
45785;DHT22;31489;51.404;5.474;2022-07-01T13:02:55;26.30;46.30
45785;DHT22;31489;51.404;5.474;2022-07-01T13:05:22;26.30;45.70
45785;DHT22;31489;51.404;5.474;2022-07-01T13:07:49;26.40;46.10
45785;DHT22;31489;51.404;5.474;2022-07-01T13:10:15;26.40;46.10
45785;DHT22;31489;51.404;5.474;2022-07-01T13:12:42;26.50;45.80
45785;DHT22;31489;51.404;5.474;2022-07-01T13:15:11;26.50;46.50
45785;DHT22;31489;51.404;5.474;2022-07-01T13:17:37;26.60;45.30
45785;DHT22;31489;51.404;5.474;2022-07-01T13:20:03;26.70;45.20
45785;DHT22;31489;51.404;5.474;2022-07-01T13:22:28;26.80;44.60
45785;DHT22;31489;51.404;5.474;2022-07-01T13:24:54;26.90;44.40
45785;DHT22;31489;51.404;5.474;2022-07-01T13:27:20;27.00;45.60
45785;DHT22;31489;51.404;5.474;2022-07-01T13:29:48;27.10;44.10
45785;DHT22;31489;51.404;5.474;2022-07-01T13:32:14;27.20;44.20
45785;DHT22;31489;51.404;5.474;2022-07-01T13:34:41;27.30;43.60
45785;DHT22;31489;51.404;5.474;2022-07-01T13:37:07;27.30;43.50
45785;DHT22;31489;51.404;5.474;2022-07-01T13:39:32;27.30;42.90
45785;DHT22;31489;51.404;5.474;2022-07-01T13:41:58;27.30;42.20
45785;DHT22;31489;51.404;5.474;2022-07-01T13:44:24;27.20;42.60
45785;DHT22;31489;51.404;5.474;2022-07-01T13:46:49;27.00;43.30
45785;DHT22;31489;51.404;5.474;2022-07-01T13:49:15;27.00;43.10
45785;DHT22;31489;51.404;5.474;2022-07-01T13:51:41;26.90;43.30
45785;DHT22;31489;51.404;5.474;2022-07-01T13:54:07;26.90;43.90
45785;DHT22;31489;51.404;5.474;2022-07-01T13:56:33;26.90;43.70
45785;DHT22;31489;51.404;5.474;2022-07-01T13:58:59;27.00;43.60
45785;DHT22;31489;51.404;5.474;2022-07-01T14:01:25;27.10;43.90
45785;DHT22;31489;51.404;5.474;2022-07-01T14:03:52;27.20;43.90
45785;DHT22;31489;51.404;5.474;2022-07-01T14:06:18;27.30;43.10
45785;DHT22;31489;51.404;5.474;2022-07-01T14:08:44;27.40;43.30
45785;DHT22;31489;51.404;5.474;2022-07-01T14:11:10;27.50;42.10
45785;DHT22;31489;51.404;5.474;2022-07-01T14:13:37;27.60;43.60
45785;DHT22;31489;51.404;5.474;2022-07-01T14:16:04;27.60;42.30
45785;DHT22;31489;51.404;5.474;2022-07-01T14:18:32;27.70;41.60
45785;DHT22;31489;51.404;5.474;2022-07-01T14:20:58;27.70;40.50
45785;DHT22;31489;51.404;5.474;2022-07-01T14:23:24;27.60;40.50
45785;DHT22;31489;51.404;5.474;2022-07-01T14:25:50;27.50;39.90
45785;DHT22;31489;51.404;5.474;2022-07-01T14:28:16;27.40;40.90
45785;DHT22;31489;51.404;5.474;2022-07-01T14:30:41;27.20;40.20
45785;DHT22;31489;51.404;5.474;2022-07-01T14:33:07;27.10;40.40
45785;DHT22;31489;51.404;5.474;2022-07-01T14:35:33;26.90;40.70
45785;DHT22;31489;51.404;5.474;2022-07-01T14:37:58;26.80;40.60
45785;DHT22;31489;51.404;5.474;2022-07-01T14:40:25;26.60;40.30
45785;DHT22;31489;51.404;5.474;2022-07-01T14:42:50;26.40;40.80
45785;DHT22;31489;51.404;5.474;2022-07-01T14:45:16;26.30;41.00
45785;DHT22;31489;51.404;5.474;2022-07-01T14:47:43;26.10;41.50
45785;DHT22;31489;51.404;5.474;2022-07-01T14:50:10;26.00;41.90
45785;DHT22;31489;51.404;5.474;2022-07-01T14:52:36;25.90;41.50
45785;DHT22;31489;51.404;5.474;2022-07-01T14:55:03;25.70;42.10
45785;DHT22;31489;51.404;5.474;2022-07-01T14:57:29;25.60;42.00
45785;DHT22;31489;51.404;5.474;2022-07-01T14:59:55;25.50;42.20
45785;DHT22;31489;51.404;5.474;2022-07-01T15:02:23;25.40;42.50
45785;DHT22;31489;51.404;5.474;2022-07-01T15:04:50;25.40;43.00
45785;DHT22;31489;51.404;5.474;2022-07-01T15:07:16;25.30;43.00
45785;DHT22;31489;51.404;5.474;2022-07-01T15:09:42;25.30;43.50
45785;DHT22;31489;51.404;5.474;2022-07-01T15:12:07;25.30;44.10
45785;DHT22;31489;51.404;5.474;2022-07-01T15:14:33;25.20;44.80
45785;DHT22;31489;51.404;5.474;2022-07-01T15:16:59;25.10;45.10
45785;DHT22;31489;51.404;5.474;2022-07-01T15:19:26;25.10;45.80
45785;DHT22;31489;51.404;5.474;2022-07-01T15:21:53;25.00;46.40
45785;DHT22;31489;51.404;5.474;2022-07-01T15:24:19;25.00;46.40
45785;DHT22;31489;51.404;5.474;2022-07-01T15:26:45;25.00;46.50
45785;DHT22;31489;51.404;5.474;2022-07-01T15:29:11;25.00;46.30
45785;DHT22;31489;51.404;5.474;2022-07-01T15:31:39;25.00;46.20
45785;DHT22;31489;51.404;5.474;2022-07-01T15:34:04;25.00;46.10
45785;DHT22;31489;51.404;5.474;2022-07-01T15:36:30;25.00;45.90
45785;DHT22;31489;51.404;5.474;2022-07-01T15:38:56;24.90;46.30
45785;DHT22;31489;51.404;5.474;2022-07-01T15:41:23;24.90;47.10
45785;DHT22;31489;51.404;5.474;2022-07-01T15:43:49;24.80;46.40
45785;DHT22;31489;51.404;5.474;2022-07-01T15:46:15;24.70;46.90
45785;DHT22;31489;51.404;5.474;2022-07-01T15:48:43;24.70;46.80
45785;DHT22;31489;51.404;5.474;2022-07-01T15:51:10;24.60;47.10
45785;DHT22;31489;51.404;5.474;2022-07-01T15:53:36;24.50;47.50
45785;DHT22;31489;51.404;5.474;2022-07-01T15:56:03;24.50;47.50
45785;DHT22;31489;51.404;5.474;2022-07-01T15:58:28;24.40;47.70